13. August 2022

Uhrzeit Code Wetter Temp. Sichtweite Wolkendecke Wind METAR/SPECI
06:50
V
15 °C 10 km+ - 110° 110° 4 kt METAR EDWE 130450Z AUTO 11004KT 9999 // NCD 15/11 Q1019
06:20
V
14 °C 10 km+ - 100° 100° 3 kt METAR EDWE 130420Z AUTO 10003KT 9999 // NCD 14/12 Q1019
05:50
V
15 °C 10 km+ - 100° 100° 3 kt METAR EDWE 130350Z AUTO 10003KT 9999 // NCD 15/13 Q1019
05:20
V
14 °C 10 km+ - 100° 100° 3 kt METAR EDWE 130320Z AUTO 10003KT 9999 // NCD 14/12 Q1018
04:50
V
15 °C 10 km+ - 100° 100° 3 kt METAR EDWE 130250Z AUTO 10003KT 9999 // NCD 15/13 Q1018
04:20
V
15 °C 10 km+ - 110° 110° 3 kt METAR EDWE 130220Z AUTO 11003KT 9999 // NCD 15/13 Q1018
03:50
V
15 °C 10 km+ - 110° 110° 3 kt METAR EDWE 130150Z AUTO 11003KT 9999 // NCD 15/13 Q1018
03:20
V
16 °C 10 km+ - 110° 110° 5 kt METAR EDWE 130120Z AUTO 11005KT 9999 // NCD 16/13 Q1018
02:50
V
16 °C 10 km+ - 110° 110° 4 kt METAR EDWE 130050Z AUTO 11004KT 9999 // NCD 16/14 Q1019
02:20
V
16 °C 10 km+ - 100° 100° 2 kt METAR EDWE 130020Z AUTO 10002KT 9999 // NCD 16/14 Q1018
01:50
V
17 °C 10 km+ - 090° 090° 2 kt METAR EDWE 122350Z AUTO 09002KT 9999 // NCD 17/14 Q1019
01:20
V
17 °C 10 km+ - 080° 080° 3 kt METAR EDWE 122320Z AUTO 08003KT 9999 // NCD 17/14 Q1019
00:50
V
17 °C 10 km+ - 060° 060° 3 kt METAR EDWE 122250Z AUTO 06003KT 9999 // NCD 17/13 Q1019
00:20
V
17 °C 10 km+ - 050° 050° 2 kt METAR EDWE 122220Z AUTO 05002KT 9999 // NCD 17/13 Q1019

12. August 2022

Uhrzeit Code Wetter Temp. Sichtweite Wolkendecke Wind METAR/SPECI
23:50
V
18 °C 10 km+ - 040° 040° 3 kt METAR EDWE 122150Z AUTO 04003KT 9999 // NCD 18/13 Q1019
23:20
V
18 °C 10 km+ - 060° 060° 4 kt METAR EDWE 122120Z AUTO 06004KT 9999 // NCD 18/13 Q1019
22:50
V
18 °C 10 km+ - 050° 050° 3 kt METAR EDWE 122050Z AUTO 05003KT 9999 // NCD 18/13 Q1019
22:20
V
18 °C 10 km+ - 030° 030° 3 kt METAR EDWE 122020Z AUTO 03003KT 9999 // NCD 18/14 Q1019
21:50
V
19 °C 10 km+ - 030° 030° 6 kt METAR EDWE 121950Z AUTO 03006KT 9999 // NCD 19/14 Q1018
21:20
V
20 °C 10 km+ - 040° 040° 5 kt METAR EDWE 121920Z AUTO 04005KT 9999 // NCD 20/14 Q1018
06:20
V
14 °C 10 km+ - 030° 030° 4 kt METAR EDWE 120420Z AUTO 03004KT 9999 // NCD 14/12 Q1021
05:50
V
14 °C 10 km+ - 060° 060° 4 kt METAR EDWE 120350Z AUTO 06004KT 9999 // NCD 14/13 Q1021
05:20
V
14 °C 10 km+ - 040° 040° 4 kt METAR EDWE 120320Z AUTO 04004KT 9999 // NCD 14/13 Q1021
04:50
V
14 °C 10 km+ - 060° 060° 3 kt METAR EDWE 120250Z AUTO 06003KT 9999 // NCD 14/13 Q1021
04:20
V
15 °C 10 km+ - 030° 030° 4 kt METAR EDWE 120220Z AUTO 03004KT 9999 // NCD 15/13 Q1021
03:50
V
15 °C 10 km+ - 040° 040° 4 kt METAR EDWE 120150Z AUTO 04004KT 9999 // NCD 15/14 Q1021
03:20
V
15 °C 10 km+ - 040° 040° 4 kt METAR EDWE 120120Z AUTO 04004KT 9999 // NCD 15/14 Q1021
02:50
V
15 °C 10 km+ - 040° 040° 3 kt METAR EDWE 120050Z AUTO 04003KT 9999 // NCD 15/14 Q1021
02:20
V
16 °C 10 km+ - 020° 020° 5 kt METAR EDWE 120020Z AUTO 02005KT 9999 // NCD 16/14 Q1022
01:50
V
16 °C 10 km+ - 040° 040° 4 kt METAR EDWE 112350Z AUTO 04004KT 9999 // NCD 16/14 Q1022
01:20
V
17 °C 10 km+ - 030° 030° 3 kt METAR EDWE 112320Z AUTO 03003KT 9999 // NCD 17/15 Q1022
00:50
V
16 °C 10 km+ - 040° 040° 3 kt METAR EDWE 112250Z AUTO 04003KT 9999 // NCD 16/14 Q1022
00:20
V
17 °C 10 km+ - 030° 030° 6 kt METAR EDWE 112220Z AUTO 03006KT 9999 // NCD 17/15 Q1022

11. August 2022

Uhrzeit Code Wetter Temp. Sichtweite Wolkendecke Wind METAR/SPECI
23:50
V
16 °C 10 km+ - 030° 030° 4 kt METAR EDWE 112150Z AUTO 03004KT 9999 // NCD 16/14 Q1022
23:20
V
17 °C 10 km+ - 030° 030° 6 kt METAR EDWE 112120Z AUTO 03006KT 9999 // NCD 17/14 Q1022
22:50
V
18 °C 10 km+ - 010° 010° 5 kt METAR EDWE 112050Z AUTO 01005KT 9999 // NCD 18/14 Q1022
22:20
V
18 °C 10 km+ - 360° 360° 4 kt METAR EDWE 112020Z AUTO 36004KT 9999 // NCD 18/14 Q1022
21:50
V
20 °C 10 km+ - 010° 010° 5 kt METAR EDWE 111950Z AUTO 01005KT 9999 // NCD 20/14 Q1022
Ältere Daten

Wir und Dritte verfolgen dein Internetverhalten auf unserer Website mit Cookies. Wenn du fortfährst, gehen wir davon aus, dass du mit unserer Cookie-Richtlinie einverstanden bist. Mehr erfahren